San Justo, Argentina
Current Conditions -  °F | °C
As of 5:11 AM on Thursday 18 Dec 2014 (Local Time) from SAEZ Reporting Station
Light Fog Light Fog  
Wind Chill: 57°   Ceiling: Unl
Heat Index: 57°   Visibility: 4mi
Dew Point: 55°   Wind: 0mph
Humidity: 94%   Direction: NA
Pressure: 29.88"   Gusts: NA
Location:  34.67°S, 58.55°W
Report Text: SAEZ 180811Z 00000KT 7000 MIFG NSC 14/13 Q1012
Loading
Personal Weather Stations






























Interactive Weather Map New forecast layout! Learn more

10-Day Weather Forecast

Advertisements
Track Severe Weather on mobile